Time;durP1;ratioP1;P1;durP2;ratioP2;P2;SDS_P1;SDS_P2;PMS_P1;PMS_P2;Temp;Humidity;BMP_temperature;BMP_pressure;BME280_temperature;BME280_humidity;BME280_pressure;Samples;Min_cycle;Max_cycle;Signal;HPM_P1;HPM_P2
2021/08/14 00:00:02;;;;;;;11.60;4.00;;;18.40;13.20;;;;;;5071242;28;20658;-78
2021/08/14 00:02:28;;;;;;;13.20;4.20;;;18.40;14.90;;;;;;5070465;28;20185;-77
2021/08/14 00:04:53;;;;;;;10.13;3.83;;;18.30;17.50;;;;;;5069938;28;20204;-80
2021/08/14 00:07:19;;;;;;;10.53;4.10;;;18.40;21.20;;;;;;5064250;28;20166;-80
2021/08/14 00:09:45;;;;;;;10.03;4.07;;;18.30;23.90;;;;;;5061122;28;20215;-81
2021/08/14 00:12:10;;;;;;;12.17;4.37;;;18.40;24.30;;;;;;5058835;28;20185;-81
2021/08/14 00:14:36;;;;;;;8.80;4.10;;;18.40;26.10;;;;;;5056901;28;20165;-79
2021/08/14 00:17:02;;;;;;;15.30;4.67;;;18.40;26.20;;;;;;5058272;28;20215;-78
2021/08/14 00:19:29;;;;;;;12.80;4.53;;;18.40;23.90;;;;;;5057655;28;20161;-81
2021/08/14 00:21:56;;;;;;;9.27;4.53;;;18.50;21.00;;;;;;5060637;28;20180;-79
2021/08/14 00:24:22;;;;;;;10.93;4.40;;;18.60;16.20;;;;;;5061796;28;20252;-83
2021/08/14 00:26:48;;;;;;;9.10;4.30;;;18.50;16.30;;;;;;5059230;28;20217;-80
2021/08/14 00:29:14;;;;;;;14.90;4.37;;;18.40;24.50;;;;;;5058124;28;20176;-79
2021/08/14 00:31:39;;;;;;;11.03;4.53;;;18.20;30.30;;;;;;5058629;28;20541;-79
2021/08/14 00:34:05;;;;;;;13.67;4.33;;;18.10;33.40;;;;;;5057461;28;20173;-79
2021/08/14 00:36:31;;;;;;;15.70;4.37;;;18.00;37.80;;;;;;5052479;28;20196;-82
2021/08/14 00:38:57;;;;;;;14.10;4.70;;;17.90;39.10;;;;;;5053766;28;20664;-81
2021/08/14 00:41:23;;;;;;;10.83;4.33;;;17.90;38.90;;;;;;5053681;28;20213;-80
2021/08/14 00:43:49;;;;;;;12.27;4.00;;;17.80;39.40;;;;;;5053891;28;20180;-81
2021/08/14 00:46:17;;;;;;;11.03;4.77;;;17.80;39.40;;;;;;5053411;28;20597;-81
2021/08/14 00:48:43;;;;;;;12.73;4.53;;;17.90;35.40;;;;;;5035658;28;20576;-78
2021/08/14 00:51:09;;;;;;;9.17;3.93;;;17.90;35.90;;;;;;5053947;28;20203;-79
2021/08/14 00:53:36;;;;;;;10.43;4.33;;;18.10;35.10;;;;;;5054347;28;20687;-81
2021/08/14 00:56:02;;;;;;;9.40;4.50;;;18.00;35.90;;;;;;5053955;28;20169;-81
2021/08/14 00:58:28;;;;;;;8.73;3.97;;;17.90;37.40;;;;;;5053370;28;20203;-80
2021/08/14 01:00:56;;;;;;;8.83;3.90;;;17.70;40.60;;;;;;5053662;28;20749;-81
2021/08/14 01:03:23;;;;;;;10.27;4.47;;;17.90;41.10;;;;;;5059458;28;20169;-80
2021/08/14 01:05:49;;;;;;;11.30;3.77;;;17.80;38.50;;;;;;5072240;28;20167;-79
2021/08/14 01:08:15;;;;;;;14.83;4.67;;;17.90;37.10;;;;;;5070436;28;20245;-80
2021/08/14 01:10:42;;;;;;;10.23;4.50;;;18.00;33.70;;;;;;5065856;28;20178;-81
2021/08/14 01:13:08;;;;;;;8.70;3.73;;;18.00;31.70;;;;;;5065124;28;20173;-81
2021/08/14 01:15:34;;;;;;;13.10;4.20;;;18.00;28.50;;;;;;5053961;28;20212;-81
2021/08/14 01:18:00;;;;;;;10.23;4.33;;;18.00;27.50;;;;;;5035334;28;20712;-80
2021/08/14 01:20:26;;;;;;;7.57;3.90;;;17.90;32.90;;;;;;5052943;28;20232;-79
2021/08/14 01:22:52;;;;;;;9.23;4.07;;;17.90;29.30;;;;;;5052039;28;20539;-80
2021/08/14 01:25:19;;;;;;;9.97;4.10;;;17.80;33.90;;;;;;5052958;28;20186;-80
2021/08/14 01:27:45;;;;;;;11.23;4.27;;;17.50;41.20;;;;;;5051590;28;20661;-81
2021/08/14 01:30:13;;;;;;;12.33;4.67;;;17.40;45.00;;;;;;5053020;28;20548;-81
2021/08/14 01:32:39;;;;;;;15.30;4.37;;;17.40;45.20;;;;;;5052707;28;20161;-80
2021/08/14 01:35:06;;;;;;;10.27;4.20;;;17.40;46.70;;;;;;5052947;28;20759;-79
2021/08/14 01:37:32;;;;;;;10.07;4.70;;;17.40;45.10;;;;;;5052825;28;20169;-81
2021/08/14 01:39:59;;;;;;;9.17;4.40;;;17.40;44.80;;;;;;5052760;28;20689;-81
2021/08/14 01:42:24;;;;;;;10.17;4.30;;;17.30;47.10;;;;;;5053118;28;20203;-82
2021/08/14 01:44:50;;;;;;;11.33;4.90;;;17.30;48.10;;;;;;5056774;28;20676;-79
2021/08/14 01:47:16;;;;;;;10.87;4.50;;;17.30;49.90;;;;;;5056579;28;20179;-80
2021/08/14 01:49:42;;;;;;;10.83;4.43;;;17.10;49.70;;;;;;5056945;28;20157;-80
2021/08/14 01:52:16;;;;;;;9.40;4.50;;;17.00;52.50;;;;;;5057287;28;20648;-81
2021/08/14 01:54:43;;;;;;;11.03;4.60;;;17.00;55.10;;;;;;5038672;28;20644;-81
2021/08/14 01:57:09;;;;;;;10.53;4.63;;;17.00;52.90;;;;;;5056732;28;20161;-81
2021/08/14 01:59:36;;;;;;;8.60;4.43;;;17.00;54.40;;;;;;5056715;28;20169;-80
2021/08/14 02:02:02;;;;;;;11.77;4.43;;;16.90;55.30;;;;;;5056618;28;20223;-82
2021/08/14 02:04:28;;;;;;;10.57;4.10;;;16.90;54.50;;;;;;5038473;28;20223;-80
2021/08/14 02:06:55;;;;;;;9.60;4.40;;;17.00;52.40;;;;;;5056512;28;20177;-81
2021/08/14 02:09:20;;;;;;;10.73;3.80;;;17.00;55.20;;;;;;5056390;28;20655;-81
2021/08/14 02:11:46;;;;;;;13.13;4.27;;;16.80;58.40;;;;;;5056466;28;20177;-79
2021/08/14 02:14:12;;;;;;;12.70;4.10;;;16.60;60.90;;;;;;5056255;28;20222;-80
2021/08/14 02:16:39;;;;;;;11.53;4.20;;;16.60;61.50;;;;;;5056091;28;20203;-82
2021/08/14 02:19:05;;;;;;;9.23;4.03;;;16.70;62.50;;;;;;5056242;28;20181;-80
2021/08/14 02:21:32;;;;;;;12.97;4.47;;;16.80;57.60;;;;;;5056261;28;20389;-80
2021/08/14 02:23:58;;;;;;;12.73;4.33;;;16.90;55.20;;;;;;5056166;28;20180;-82
2021/08/14 02:26:25;;;;;;;10.07;4.53;;;17.00;53.80;;;;;;5055930;28;20745;-80
2021/08/14 02:28:50;;;;;;;10.73;3.83;;;17.00;52.60;;;;;;5055971;28;20622;-82
2021/08/14 02:31:16;;;;;;;12.43;3.87;;;16.90;54.50;;;;;;5055858;28;20169;-81
2021/08/14 02:33:42;;;;;;;15.60;5.37;;;16.70;60.00;;;;;;5056034;28;20582;-80
2021/08/14 02:36:09;;;;;;;13.27;4.57;;;16.50;66.60;;;;;;5038254;28;20227;-80
2021/08/14 02:38:37;;;;;;;13.30;4.60;;;16.50;68.30;;;;;;5055774;28;20497;-79
2021/08/14 02:41:04;;;;;;;8.53;3.70;;;16.50;68.00;;;;;;5056165;28;20209;-78
2021/08/14 02:43:30;;;;;;;12.53;4.97;;;16.50;68.40;;;;;;5055870;28;20192;-76
2021/08/14 02:46:00;;;;;;;13.17;5.00;;;16.50;69.60;;;;;;5055382;28;20208;-80
2021/08/14 02:48:26;;;;;;;10.50;4.10;;;16.50;70.50;;;;;;5055857;28;20248;-77
2021/08/14 02:50:52;;;;;;;16.73;4.63;;;16.40;71.90;;;;;;5055799;28;20180;-77
2021/08/14 02:53:17;;;;;;;12.87;4.83;;;16.40;72.90;;;;;;5076440;28;20157;-77
2021/08/14 02:55:43;;;;;;;12.43;4.60;;;16.50;73.50;;;;;;5072600;28;20184;-77
2021/08/14 02:58:09;;;;;;;14.47;4.50;;;16.40;74.30;;;;;;5059622;28;20203;-76
2021/08/14 03:00:36;;;;;;;10.73;4.60;;;16.40;73.90;;;;;;5057263;28;20846;-78
2021/08/14 03:03:05;;;;;;;10.60;4.47;;;16.40;74.30;;;;;;5055715;28;20226;-78
2021/08/14 03:05:30;;;;;;;10.87;4.57;;;16.40;72.60;;;;;;5055489;28;20231;-77
2021/08/14 03:07:56;;;;;;;12.40;4.60;;;16.30;74.60;;;;;;5055371;28;20633;-78
2021/08/14 03:10:22;;;;;;;8.93;4.10;;;16.30;74.40;;;;;;5055003;28;20178;-77
2021/08/14 03:12:48;;;;;;;10.80;5.07;;;16.50;71.20;;;;;;5056666;28;20181;-77
2021/08/14 03:15:14;;;;;;;13.50;4.90;;;16.60;66.70;;;;;;5068572;28;20173;-76
2021/08/14 03:17:40;;;;;;;12.37;5.03;;;16.60;66.80;;;;;;5080135;28;20237;-78
2021/08/14 03:20:07;;;;;;;13.50;4.60;;;16.50;69.90;;;;;;5069175;28;20753;-78
2021/08/14 03:22:33;;;;;;;13.73;5.37;;;16.40;71.90;;;;;;5060717;28;20271;-79
2021/08/14 03:24:59;;;;;;;13.40;4.93;;;16.40;72.50;;;;;;5057102;28;20564;-78
2021/08/14 03:27:39;;;;;;;12.17;4.50;;;16.50;72.70;;;;;;5054825;28;20195;-77
2021/08/14 03:30:05;;;;;;;13.83;5.30;;;16.50;71.40;;;;;;5054498;28;20172;-78
2021/08/14 03:32:31;;;;;;;13.00;4.83;;;16.50;69.00;;;;;;5054832;28;20169;-77
2021/08/14 03:34:56;;;;;;;14.33;5.17;;;16.50;72.10;;;;;;5054744;28;20195;-77
2021/08/14 03:37:22;;;;;;;10.90;4.60;;;16.50;70.10;;;;;;5053534;28;20173;-77
2021/08/14 03:39:47;;;;;;;11.10;4.67;;;16.70;71.50;;;;;;5054729;28;20235;-78
2021/08/14 03:42:13;;;;;;;8.97;4.40;;;16.40;73.00;;;;;;5054692;28;20195;-76
2021/08/14 03:44:39;;;;;;;12.20;4.87;;;16.40;74.70;;;;;;5054217;28;20219;-77
2021/08/14 03:47:05;;;;;;;12.93;4.93;;;16.50;73.20;;;;;;5054455;28;20165;-77
2021/08/14 03:49:31;;;;;;;11.10;5.10;;;16.40;73.90;;;;;;5054552;28;20244;-77
2021/08/14 03:51:56;;;;;;;14.87;5.17;;;16.30;76.40;;;;;;5054440;28;20176;-77
2021/08/14 03:54:22;;;;;;;15.93;5.00;;;16.20;78.60;;;;;;5054750;28;20219;-81
2021/08/14 03:56:47;;;;;;;14.43;5.10;;;16.20;79.50;;;;;;5055950;28;20543;-77
2021/08/14 03:59:13;;;;;;;13.23;4.57;;;16.30;79.20;;;;;;5053619;28;20691;-79
2021/08/14 04:01:39;;;;;;;13.73;4.57;;;16.10;79.30;;;;;;5053800;28;20209;-78
2021/08/14 04:04:04;;;;;;;14.97;6.33;;;16.00;82.30;;;;;;5055037;28;20204;-77
2021/08/14 04:06:30;;;;;;;19.50;9.13;;;15.90;84.60;;;;;;5052296;28;20832;-78
2021/08/14 04:08:56;;;;;;;10.23;4.40;;;15.90;87.10;;;;;;5054006;28;20172;-80
2021/08/14 04:11:21;;;;;;;11.57;4.63;;;15.80;88.30;;;;;;5054100;28;20181;-77
2021/08/14 04:13:47;;;;;;;11.43;4.77;;;15.80;89.60;;;;;;5053723;28;20178;-77
2021/08/14 04:16:13;;;;;;;12.30;4.83;;;15.70;90.10;;;;;;5053857;28;20173;-78
2021/08/14 04:18:38;;;;;;;18.87;5.83;;;15.90;90.10;;;;;;5053815;28;20165;-77
2021/08/14 04:21:05;;;;;;;13.70;4.60;;;15.80;90.20;;;;;;5054390;28;20204;-79
2021/08/14 04:23:33;;;;;;;16.90;5.80;;;15.80;90.10;;;;;;5053721;28;20250;-77
2021/08/14 04:25:59;;;;;;;12.83;5.37;;;15.90;90.10;;;;;;5053336;28;20173;-77
2021/08/14 04:28:24;;;;;;;14.30;4.90;;;15.90;89.10;;;;;;5053898;28;20531;-77
2021/08/14 04:30:50;;;;;;;15.03;5.87;;;16.00;88.70;;;;;;5054047;28;20199;-78
2021/08/14 04:33:16;;;;;;;12.13;4.80;;;16.00;87.50;;;;;;5053712;28;20177;-77
2021/08/14 04:35:41;;;;;;;15.50;5.30;;;16.00;88.30;;;;;;5053399;28;20184;-78
2021/08/14 04:38:07;;;;;;;11.23;4.40;;;16.00;88.00;;;;;;5052155;28;20700;-77
2021/08/14 04:40:33;;;;;;;14.57;5.20;;;16.00;89.00;;;;;;5053219;28;20223;-78
2021/08/14 04:42:58;;;;;;;14.23;5.23;;;16.10;87.80;;;;;;5052224;28;20177;-80
2021/08/14 04:45:24;;;;;;;16.13;5.00;;;16.10;86.40;;;;;;5053558;28;20664;-79
2021/08/14 04:47:51;;;;;;;13.20;5.33;;;16.20;85.60;;;;;;5053321;28;20636;-79
2021/08/14 04:50:17;;;;;;;16.30;5.63;;;16.20;83.30;;;;;;5053526;28;20173;-80
2021/08/14 04:52:42;;;;;;;14.37;5.43;;;16.30;82.40;;;;;;5053339;28;20222;-80
2021/08/14 04:55:09;;;;;;;15.93;5.17;;;16.40;78.50;;;;;;5053191;28;20566;-80
2021/08/14 04:57:34;;;;;;;13.60;5.00;;;16.40;78.80;;;;;;5053368;28;20545;-78
2021/08/14 05:00:00;;;;;;;12.90;5.20;;;16.50;75.50;;;;;;5053292;28;20680;-80
2021/08/14 05:02:26;;;;;;;17.43;5.63;;;16.60;73.00;;;;;;5053092;28;20189;-80
2021/08/14 05:04:51;;;;;;;14.33;5.20;;;16.80;69.00;;;;;;5053619;28;20177;-81
2021/08/14 05:07:17;;;;;;;12.30;5.47;;;16.80;69.20;;;;;;5053088;28;20173;-80
2021/08/14 05:09:45;;;;;;;15.47;5.27;;;16.70;71.40;;;;;;5052879;28;20188;-79
2021/08/14 05:12:11;;;;;;;13.53;5.87;;;16.80;72.30;;;;;;5053215;28;20169;-81
2021/08/14 05:14:36;;;;;;;13.23;4.47;;;16.80;70.90;;;;;;5053246;28;20199;-81
2021/08/14 05:17:03;;;;;;;14.30;4.90;;;16.80;73.20;;;;;;5052013;28;20212;-81
2021/08/14 05:19:29;;;;;;;12.43;4.53;;;16.80;70.20;;;;;;5052969;28;20204;-80
2021/08/14 05:21:54;;;;;;;13.63;5.77;;;16.80;69.80;;;;;;5052901;28;20216;-81
2021/08/14 05:24:20;;;;;;;16.83;5.27;;;17.10;66.80;;;;;;5054677;28;20169;-82
2021/08/14 05:26:46;;;;;;;16.03;5.07;;;16.90;64.50;;;;;;5053063;28;20193;-81
2021/08/14 05:29:11;;;;;;;11.07;5.00;;;17.00;64.00;;;;;;5052879;28;20177;-80
2021/08/14 05:31:37;;;;;;;12.37;5.10;;;16.90;63.10;;;;;;5052902;28;20172;-80
2021/08/14 05:34:04;;;;;;;11.87;5.20;;;16.90;65.60;;;;;;5052737;28;20183;-82
2021/08/14 05:36:31;;;;;;;10.23;4.63;;;16.80;69.20;;;;;;5053158;28;20535;-82
2021/08/14 05:38:57;;;;;;;15.67;5.97;;;16.70;72.90;;;;;;5053026;28;20180;-81
2021/08/14 05:41:22;;;;;;;15.03;5.07;;;16.60;73.40;;;;;;5053829;28;20222;-82
2021/08/14 05:43:48;;;;;;;14.10;5.37;;;16.70;73.20;;;;;;5052692;28;20176;-82
2021/08/14 05:46:14;;;;;;;12.33;5.20;;;16.70;75.60;;;;;;5052713;28;20232;-81
2021/08/14 05:48:39;;;;;;;13.93;5.17;;;16.70;72.50;;;;;;5052826;28;20517;-81
2021/08/14 05:51:05;;;;;;;12.30;5.10;;;16.90;71.00;;;;;;5052591;28;20283;-79
2021/08/14 05:53:31;;;;;;;12.63;5.07;;;16.90;71.20;;;;;;5052465;28;20173;-80
2021/08/14 05:55:57;;;;;;;12.90;4.90;;;16.90;73.00;;;;;;5052765;28;20165;-81
2021/08/14 05:58:23;;;;;;;13.80;5.33;;;16.70;76.00;;;;;;5052571;28;20169;-79
2021/08/14 06:00:48;;;;;;;15.67;5.70;;;16.60;77.40;;;;;;5053245;28;20267;-81
2021/08/14 06:03:14;;;;;;;11.73;4.90;;;16.60;77.80;;;;;;5053141;28;20163;-82
2021/08/14 06:05:40;;;;;;;16.87;6.90;;;16.60;78.40;;;;;;5058140;28;20226;-80
2021/08/14 06:08:06;;;;;;;15.03;5.30;;;16.70;76.90;;;;;;5071296;28;20184;-82
2021/08/14 06:10:31;;;;;;;18.33;5.00;;;16.80;75.80;;;;;;5057513;28;20188;-82
2021/08/14 06:12:57;;;;;;;13.43;5.97;;;16.90;74.00;;;;;;5054299;28;20193;-80
2021/08/14 06:15:23;;;;;;;14.60;5.30;;;17.00;71.80;;;;;;5052884;28;20200;-80
2021/08/14 06:17:48;;;;;;;18.00;6.47;;;17.00;69.30;;;;;;5052645;28;20626;-81
2021/08/14 06:20:14;;;;;;;13.67;5.00;;;17.10;69.00;;;;;;5052539;28;20231;-80
2021/08/14 06:22:42;;;;;;;15.70;5.93;;;17.10;68.10;;;;;;5052614;28;20200;-80
2021/08/14 06:25:08;;;;;;;17.93;5.20;;;17.00;71.10;;;;;;5052882;28;20177;-81
2021/08/14 06:27:35;;;;;;;12.77;5.23;;;17.00;72.30;;;;;;5054011;28;20196;-81
2021/08/14 06:30:01;;;;;;;14.87;4.73;;;17.30;71.30;;;;;;5075023;28;20232;-78
2021/08/14 06:32:27;;;;;;;16.90;5.53;;;17.40;66.60;;;;;;5078671;28;20161;-79
2021/08/14 06:34:52;;;;;;;14.17;5.30;;;17.60;61.30;;;;;;5061593;28;20176;-82
2021/08/14 06:37:18;;;;;;;16.83;5.60;;;17.60;62.20;;;;;;5057127;28;20173;-82
2021/08/14 06:39:43;;;;;;;12.63;5.20;;;17.70;61.70;;;;;;5055852;28;20180;-83
2021/08/14 06:42:09;;;;;;;18.30;5.53;;;17.70;61.30;;;;;;5055844;28;20173;-80
2021/08/14 06:44:35;;;;;;;17.70;6.20;;;17.80;62.90;;;;;;5055692;28;20645;-82
2021/08/14 06:47:01;;;;;;;16.13;6.83;;;17.70;65.80;;;;;;5055954;28;20169;-80
2021/08/14 06:49:28;;;;;;;18.03;6.13;;;17.80;64.70;;;;;;5055608;28;20168;-82
2021/08/14 06:51:54;;;;;;;14.63;5.67;;;17.90;61.70;;;;;;5055496;28;20176;-81
2021/08/14 06:54:19;;;;;;;16.93;6.43;;;18.00;61.00;;;;;;5055340;28;20172;-81
2021/08/14 06:56:45;;;;;;;18.90;6.03;;;18.00;62.10;;;;;;5055543;28;20621;-81
2021/08/14 06:59:11;;;;;;;14.27;5.60;;;18.00;63.70;;;;;;5055375;28;20236;-80
2021/08/14 07:01:36;;;;;;;16.33;5.57;;;17.90;68.30;;;;;;5055526;28;20209;-82
2021/08/14 07:04:02;;;;;;;12.50;5.67;;;18.10;68.80;;;;;;5055826;28;20199;-81
2021/08/14 07:06:28;;;;;;;13.87;6.00;;;18.10;68.50;;;;;;5055063;28;20170;-82
2021/08/14 07:08:54;;;;;;;17.63;6.30;;;18.20;66.20;;;;;;5055601;28;20455;-82
2021/08/14 07:11:21;;;;;;;14.13;6.20;;;18.30;64.30;;;;;;5055536;28;20208;-82
2021/08/14 07:13:48;;;;;;;15.20;5.40;;;18.20;69.60;;;;;;5055341;28;20167;-82
2021/08/14 07:16:14;;;;;;;16.13;5.63;;;18.30;66.40;;;;;;5054912;28;20189;-82
2021/08/14 07:18:39;;;;;;;13.20;6.00;;;18.30;66.80;;;;;;5055273;28;20622;-78
2021/08/14 07:21:05;;;;;;;17.90;6.53;;;18.50;61.10;;;;;;5037057;28;20307;-81
2021/08/14 07:23:31;;;;;;;14.73;5.40;;;18.50;60.00;;;;;;5055032;28;20169;-81
2021/08/14 07:25:57;;;;;;;12.93;6.00;;;18.40;63.40;;;;;;5054768;28;20173;-81
2021/08/14 07:28:23;;;;;;;18.97;5.70;;;18.50;64.40;;;;;;5054766;28;20219;-80
2021/08/14 07:30:50;;;;;;;15.87;5.83;;;18.50;66.50;;;;;;5053729;28;20234;-81
2021/08/14 07:33:16;;;;;;;15.83;5.40;;;18.50;64.30;;;;;;5054908;28;20573;-81
2021/08/14 07:35:42;;;;;;;16.07;5.97;;;18.60;63.60;;;;;;5054799;28;20196;-81
2021/08/14 07:38:08;;;;;;;16.00;5.83;;;18.80;61.10;;;;;;5054132;28;20177;-83
2021/08/14 07:40:34;;;;;;;16.57;5.90;;;18.90;61.30;;;;;;5053507;28;20208;-82
2021/08/14 07:43:00;;;;;;;15.67;6.13;;;19.00;60.50;;;;;;5053549;28;20211;-83
2021/08/14 07:45:25;;;;;;;15.20;5.83;;;19.10;55.90;;;;;;5056269;28;20180;-81
2021/08/14 07:47:52;;;;;;;15.30;5.90;;;19.10;52.40;;;;;;5054676;28;20172;-81
2021/08/14 07:50:23;;;;;;;14.40;6.00;;;19.10;53.50;;;;;;5054303;28;20255;-81
2021/08/14 07:52:49;;;;;;;14.10;5.13;;;19.20;51.10;;;;;;5054805;28;20641;-82
2021/08/14 07:55:15;;;;;;;14.77;5.23;;;19.20;51.70;;;;;;5054658;28;20593;-81
2021/08/14 07:57:42;;;;;;;15.70;5.27;;;19.30;47.00;;;;;;5055570;28;20645;-82
2021/08/14 08:00:10;;;;;;;13.20;5.50;;;19.20;47.90;;;;;;5055633;28;20184;-80
2021/08/14 08:02:37;;;;;;;18.20;5.50;;;19.10;48.10;;;;;;5054742;28;20222;-82
2021/08/14 08:05:04;;;;;;;15.43;5.43;;;19.10;52.80;;;;;;5054678;28;20216;-80
2021/08/14 08:07:30;;;;;;;14.27;5.73;;;18.90;59.30;;;;;;5053898;28;20197;-82
2021/08/14 08:09:55;;;;;;;17.67;6.17;;;18.90;60.80;;;;;;5054406;28;20173;-80
2021/08/14 08:12:21;;;;;;;19.00;6.07;;;19.20;61.40;;;;;;5057517;28;20307;-82
2021/08/14 08:14:47;;;;;;;13.03;5.33;;;19.10;58.40;;;;;;5054055;28;20196;-77
2021/08/14 08:17:12;;;;;;;13.47;5.50;;;19.10;60.30;;;;;;5054057;28;20165;-78
2021/08/14 08:19:38;;;;;;;16.00;6.03;;;19.30;57.70;;;;;;5053479;28;20223;-78
2021/08/14 08:22:04;;;;;;;18.57;6.27;;;19.20;56.40;;;;;;5053866;28;20666;-78
2021/08/14 08:24:30;;;;;;;15.90;6.67;;;19.20;58.60;;;;;;5053823;28;20643;-78
2021/08/14 08:26:56;;;;;;;14.53;6.23;;;19.40;57.60;;;;;;5053427;28;20679;-78
2021/08/14 08:29:22;;;;;;;12.53;5.00;;;19.60;50.40;;;;;;5053780;28;20641;-77
2021/08/14 08:31:49;;;;;;;14.93;6.07;;;19.70;45.10;;;;;;5053694;28;20169;-78
2021/08/14 08:34:15;;;;;;;13.30;5.70;;;19.70;43.50;;;;;;5053338;28;20170;-78
2021/08/14 08:36:41;;;;;;;13.00;5.10;;;19.80;43.90;;;;;;5053378;28;20173;-79
2021/08/14 08:39:07;;;;;;;14.50;5.57;;;19.60;38.40;;;;;;5053649;28;20163;-78
2021/08/14 08:41:33;;;;;;;18.27;5.73;;;19.60;45.10;;;;;;5053798;28;20281;-78
2021/08/14 08:43:59;;;;;;;16.93;5.40;;;19.70;42.40;;;;;;5053673;28;20178;-77
2021/08/14 08:46:27;;;;;;;14.33;6.00;;;19.80;41.60;;;;;;5053169;28;20193;-79
2021/08/14 08:48:54;;;;;;;14.93;5.77;;;19.90;43.10;;;;;;5053104;28;20162;-77
2021/08/14 08:51:24;;;;;;;14.67;5.60;;;19.90;38.90;;;;;;5053291;28;20166;-78
2021/08/14 08:53:51;;;;;;;13.80;5.97;;;20.10;33.40;;;;;;5035437;28;20641;-79
2021/08/14 08:56:16;;;;;;;14.87;6.00;;;20.10;31.20;;;;;;5053791;28;20173;-78
2021/08/14 08:58:42;;;;;;;18.07;6.27;;;20.20;35.30;;;;;;5035307;28;20235;-78
2021/08/14 09:01:09;;;;;;;21.50;6.53;;;20.30;34.90;;;;;;5053123;28;20760;-78
2021/08/14 09:03:35;;;;;;;15.27;5.40;;;20.50;32.30;;;;;;5052435;28;20193;-78
2021/08/14 09:06:00;;;;;;;14.30;5.60;;;20.50;16.40;;;;;;5053190;28;20173;-77
2021/08/14 09:08:26;;;;;;;13.53;5.60;;;20.70;16.10;;;;;;5051823;28;20169;-77
2021/08/14 09:11:13;;;;;;;12.73;5.00;;;20.80;12.10;;;;;;5052707;28;20189;-78
2021/08/14 09:14:00;;;;;;;12.73;6.07;;;20.80;12.00;;;;;;5053033;28;20163;-78
2021/08/14 09:16:26;;;;;;;12.63;6.13;;;20.90;18.60;;;;;;5052639;28;20183;-79
2021/08/14 09:18:58;;;;;;;12.67;5.77;;;20.90;21.20;;;;;;5053072;28;20187;-77
2021/08/14 09:21:37;;;;;;;10.70;5.20;;;21.00;24.70;;;;;;5053696;28;20738;-77
2021/08/14 09:24:05;;;;;;;14.60;5.87;;;21.10;14.70;;;;;;5061621;28;20197;-79
2021/08/14 09:26:47;;;;;;;15.33;5.77;;;21.20;10.90;;;;;;5051743;28;20787;-77
2021/08/14 09:29:13;;;;;;;14.20;5.60;;;21.20;1.00;;;;;;5053230;28;20171;-78
2021/08/14 09:31:52;;;;;;;15.17;5.57;;;21.20;7.60;;;;;;5052720;28;20200;-77
2021/08/14 09:34:36;;;;;;;13.90;5.57;;;21.40;9.30;;;;;;5053649;28;20196;-79
2021/08/14 09:37:24;;;;;;;14.90;4.83;;;21.40;1.00;;;;;;5035570;28;20246;-77
2021/08/14 09:40:00;;;;;;;14.63;4.93;;;21.50;1.00;;;;;;5052964;28;20668;-78
2021/08/14 09:42:26;;;;;;;16.40;4.53;;;21.70;1.00;;;;;;5053905;28;20179;-80
2021/08/14 09:45:12;;;;;;;11.33;5.17;;;21.70;1.00;;;;;;5056739;28;20187;-78
2021/08/14 09:47:38;;;;;;;14.47;4.63;;;21.60;1.00;;;;;;5057923;28;20197;-77
2021/08/14 09:50:04;;;;;;;13.03;4.20;;;21.60;1.00;;;;;;5055759;28;20175;-78
2021/08/14 09:52:30;;;;;;;11.30;4.77;;;21.60;1.00;;;;;;5052530;28;20202;-79
2021/08/14 09:54:56;;;;;;;13.90;5.00;;;21.80;1.00;;;;;;5051308;28;20187;-82
2021/08/14 09:57:23;;;;;;;14.70;4.70;;;21.90;1.00;;;;;;5052727;28;20242;-78
2021/08/14 09:59:50;;;;;;;11.73;5.40;;;21.70;1.00;;;;;;5052391;28;20169;-78
2021/08/14 10:02:36;;;;;;;9.07;4.67;;;21.80;1.00;;;;;;5053869;28;20217;-80
2021/08/14 10:05:02;;;;;;;13.50;6.07;;;21.90;1.00;;;;;;5037900;28;20172;-81
2021/08/14 10:07:27;;;;;;;11.93;4.30;;;22.00;1.00;;;;;;5056362;28;20595;-80
2021/08/14 10:09:53;;;;;;;15.73;5.60;;;22.00;1.00;;;;;;5056159;28;20663;-79
2021/08/14 10:12:20;;;;;;;11.03;4.60;;;21.90;1.00;;;;;;5056189;28;20242;-78
2021/08/14 10:14:48;;;;;;;11.60;4.90;;;21.90;1.00;;;;;;5057433;28;20179;-78
2021/08/14 10:17:16;;;;;;;12.47;5.00;;;22.00;1.00;;;;;;5057749;28;20169;-77
2021/08/14 10:19:42;;;;;;;11.37;4.37;;;22.00;1.00;;;;;;5057525;28;20255;-78
2021/08/14 10:22:10;;;;;;;11.77;4.40;;;22.00;1.00;;;;;;5056985;28;20684;-77
2021/08/14 10:24:35;;;;;;;10.73;4.53;;;22.20;1.00;;;;;;5056466;28;20640;-79
2021/08/14 10:27:09;;;;;;;13.03;5.03;;;22.40;1.00;;;;;;5055826;28;20187;-79
2021/08/14 10:29:58;;;;;;;11.87;5.40;;;22.40;1.00;;;;;;5055167;28;20177;-78
2021/08/14 10:32:30;;;;;;;11.23;5.00;;;22.30;1.00;;;;;;5055689;28;20175;-79
2021/08/14 10:35:14;;;;;;;11.80;4.63;;;22.20;1.00;;;;;;5055333;28;20173;-77
2021/08/14 10:37:48;;;;;;;9.43;4.67;;;22.40;1.00;;;;;;5055709;28;20164;-79
2021/08/14 10:40:16;;;;;;;17.07;10.77;;;22.40;1.00;;;;;;5055280;28;20209;-77
2021/08/14 10:42:52;;;;;;;10.03;4.43;;;22.40;1.00;;;;;;5055552;28;20169;-77
2021/08/14 10:45:35;;;;;;;11.30;5.37;;;22.60;1.00;;;;;;5054924;28;20181;-78
2021/08/14 10:48:04;;;;;;;11.90;5.63;;;22.70;1.00;;;;;;5037830;28;20208;-78
2021/08/14 10:50:33;;;;;;;14.73;5.10;;;22.60;1.00;;;;;;5055425;28;20203;-78
2021/08/14 10:53:18;;;;;;;14.73;5.03;;;22.70;1.00;;;;;;5055630;28;20566;-78
2021/08/14 10:55:53;;;;;;;11.57;4.90;;;22.80;1.00;;;;;;5055348;28;20161;-78
2021/08/14 10:58:22;;;;;;;11.97;5.10;;;22.90;99.90;;;;;;5054970;28;20252;-78
2021/08/14 11:00:48;;;;;;;11.10;5.67;;;23.00;1.00;;;;;;5055559;28;20190;-79
2021/08/14 11:03:14;;;;;;;14.40;5.17;;;23.20;1.00;;;;;;5055029;28;20165;-80
2021/08/14 11:05:43;;;;;;;11.40;4.80;;;23.00;1.00;;;;;;5055112;28;20512;-77
2021/08/14 11:08:30;;;;;;;10.33;4.83;;;23.00;1.00;;;;;;5055163;28;20194;-80
2021/08/14 11:10:57;;;;;;;10.17;4.80;;;23.10;1.00;;;;;;5055524;28;20611;-79
2021/08/14 11:13:31;;;;;;;10.33;4.63;;;23.20;1.00;;;;;;5054997;28;20166;-79
2021/08/14 11:15:58;;;;;;;13.80;5.13;;;23.40;1.00;;;;;;5055304;28;20200;-82
2021/08/14 11:18:53;;;;;;;10.90;5.00;;;23.70;1.00;;;;;;5037394;28;20174;-78
2021/08/14 11:21:39;;;;;;;12.07;5.33;;;23.80;99.90;;;;;;5054555;28;20218;-80
2021/08/14 11:24:04;;;;;;;8.10;4.53;;;23.70;99.90;;;;;;5054914;28;20531;-78
2021/08/14 11:26:35;;;;;;;11.00;5.00;;;23.80;99.90;;;;;;5054401;28;20195;-81
2021/08/14 11:29:03;;;;;;;10.77;5.47;;;23.80;99.90;;;;;;5054878;28;20269;-81
2021/08/14 11:31:29;;;;;;;10.33;5.27;;;23.90;99.90;;;;;;5054949;28;20205;-79
2021/08/14 11:34:22;;;;;;;11.23;4.80;;;24.00;99.90;;;;;;5054972;28;20216;-78
2021/08/14 11:36:57;;;;;;;10.37;5.03;;;24.10;99.90;;;;;;5051304;28;20235;-80
2021/08/14 11:39:32;;;;;;;10.80;5.20;;;24.10;99.90;;;;;;5054621;28;20162;-79
2021/08/14 11:41:58;;;;;;;13.20;5.60;;;24.20;17.40;;;;;;5054117;28;20547;-80
2021/08/14 11:44:26;;;;;;;10.80;4.70;;;24.00;1.00;;;;;;5054381;28;20249;-78
2021/08/14 11:47:09;;;;;;;10.83;5.00;;;24.10;99.90;;;;;;5054115;28;20631;-80
2021/08/14 11:49:56;;;;;;;13.73;5.70;;;24.00;99.90;;;;;;5054294;28;20176;-80
2021/08/14 11:52:23;;;;;;;10.27;5.50;;;23.80;99.90;;;;;;5054208;28;20170;-78
2021/08/14 11:55:10;;;;;;;11.37;5.50;;;23.60;99.90;;;;;;5054108;28;20170;-79
2021/08/14 11:57:44;;;;;;;11.17;5.80;;;23.60;99.90;;;;;;5053853;28;20588;-78
2021/08/14 12:00:20;;;;;;;11.33;5.30;;;23.50;99.90;;;;;;5054448;28;20209;-78
2021/08/14 12:02:48;;;;;;;12.67;6.00;;;23.50;99.90;;;;;;5054133;28;20178;-78
2021/08/14 12:05:22;;;;;;;10.87;5.40;;;23.70;99.90;;;;;;5054151;28;20203;-77
2021/08/14 12:07:47;;;;;;;12.47;5.97;;;23.80;99.90;;;;;;5054169;28;20284;-78
2021/08/14 12:10:13;;;;;;;10.27;5.07;;;23.80;99.90;;;;;;5053774;28;20640;-79
2021/08/14 12:12:39;;;;;;;12.60;5.20;;;23.80;39.00;;;;;;5054613;28;20171;-77
2021/08/14 12:15:11;;;;;;;10.80;5.57;;;23.80;99.90;;;;;;5055099;28;20255;-78
2021/08/14 12:17:44;;;;;;;9.83;5.30;;;24.00;49.30;;;;;;5056493;28;20176;-78
2021/08/14 12:20:10;;;;;;;11.37;5.37;;;24.20;1.00;;;;;;5037740;28;20198;-79
2021/08/14 12:22:37;;;;;;;9.37;5.17;;;24.30;1.00;;;;;;5055498;28;20199;-78
2021/08/14 12:25:26;;;;;;;11.23;5.47;;;24.20;1.00;;;;;;5054291;28;20162;-77
2021/08/14 12:27:52;;;;;;;11.57;5.67;;;24.00;1.00;;;;;;5053160;28;20240;-78
2021/08/14 12:30:23;;;;;;;11.97;5.47;;;23.90;1.00;;;;;;5053997;28;20253;-77
2021/08/14 12:32:53;;;;;;;9.77;5.27;;;24.00;1.00;;;;;;5053740;28;20174;-78
2021/08/14 12:35:21;;;;;;;11.70;5.50;;;24.10;1.00;;;;;;5053553;28;20167;-79
2021/08/14 12:37:50;;;;;;;11.03;5.80;;;24.20;73.20;;;;;;5053627;28;20172;-78
2021/08/14 12:40:19;;;;;;;12.30;5.20;;;24.10;99.90;;;;;;5056813;28;20196;-79